Terminal Aerodrome Forecast
Issued by NWS

Home | Current Version | Previous Version | Text Only | Print | Product List | Glossary On
Versions: 1 2 3 4 5 6 7 8 9 10 11 12 13 14 15 16 17 18 19
000
FTUS43 KFGF 172321
TAFDVL
TAF
KDVL 172321Z 1800/1824 27007KT P6SM BKN250
     FM180600 31006KT P6SM BKN110
     FM180900 31013KT P6SM BKN025
     FM181600 31015G23KT P6SM SCT045
     FM181900 31016G24KT P6SM FEW200
     FM182300 29011KT P6SM FEW250=

USA.gov is the U.S. government's official web portal to all federal, state and local government web resources and services.